Time;durP1;ratioP1;P1;durP2;ratioP2;P2;SDS_P1;SDS_P2;PMS_P1;PMS_P2;Temp;Humidity;BMP_temperature;BMP_pressure;BME280_temperature;BME280_humidity;BME280_pressure;Samples;Min_cycle;Max_cycle;Signal;HPM_P1;HPM_P2
2022/08/11 00:00:05;;;;;;;9.25;4.00;;;29.30;99.90;;;;;;5012100;23;20041;-48
2022/08/11 00:02:34;;;;;;;9.63;4.22;;;29.30;99.90;;;;;;5032420;28;20034;-48
2022/08/11 00:05:08;;;;;;;9.73;3.90;;;29.30;99.90;;;;;;5032319;28;20048;-49
2022/08/11 00:08:04;;;;;;;14.38;4.28;;;29.30;99.90;;;;;;5032233;28;20076;-49
2022/08/11 00:10:30;;;;;;;13.65;4.00;;;29.30;99.90;;;;;;5019220;28;20103;-49
2022/08/11 00:12:59;;;;;;;17.55;5.45;;;29.40;99.90;;;;;;5032418;28;20053;-48
2022/08/11 00:15:35;;;;;;;13.70;4.85;;;29.40;99.90;;;;;;5031142;28;20033;-48
2022/08/11 00:18:02;;;;;;;16.38;5.57;;;29.30;99.90;;;;;;5032138;28;20040;-48
2022/08/11 00:20:32;;;;;;;13.85;5.82;;;29.30;99.90;;;;;;5032393;28;20032;-48
2022/08/11 00:23:07;;;;;;;14.75;4.45;;;29.40;99.90;;;;;;5032155;28;20064;-49
2022/08/11 00:25:48;;;;;;;11.00;4.25;;;29.30;99.90;;;;;;5031919;28;20029;-49
2022/08/11 00:28:30;;;;;;;7.97;3.78;;;29.30;99.90;;;;;;5031932;28;20025;-49
2022/08/11 00:31:00;;;;;;;19.83;3.95;;;29.30;99.90;;;;;;5029865;28;20105;-49
2022/08/11 00:33:38;;;;;;;10.38;4.25;;;29.30;99.90;;;;;;5031759;28;20056;-49
2022/08/11 00:36:05;;;;;;;18.23;4.30;;;29.30;99.90;;;;;;5031823;28;20034;-48
2022/08/11 00:38:33;;;;;;;;;;;29.30;99.90;;;;;;5032485;28;20535;-48
2022/08/11 00:41:30;;;;;;;13.52;4.40;;;29.30;99.90;;;;;;5031826;28;20385;-49
2022/08/11 00:43:55;;;;;;;;;;;29.20;99.90;;;;;;5032156;28;20465;-48
2022/08/11 00:46:24;;;;;;;9.52;3.80;;;29.20;99.90;;;;;;5031536;28;19913;-48
2022/08/11 00:49:27;;;;;;;9.95;4.22;;;29.20;99.90;;;;;;5031538;28;20018;-48
2022/08/11 00:52:08;;;;;;;13.05;4.32;;;29.20;99.90;;;;;;5031596;28;20076;-48
2022/08/11 00:54:55;;;;;;;12.93;4.75;;;29.10;99.90;;;;;;5031434;28;20029;-48
2022/08/11 00:57:35;;;;;;;14.90;5.07;;;29.10;99.90;;;;;;5030818;28;20021;-49
2022/08/11 01:00:12;;;;;;;9.80;4.28;;;29.10;99.90;;;;;;5043826;22;20049;-54
2022/08/11 01:03:00;;;;;;;14.75;4.60;;;29.00;99.90;;;;;;5031801;28;20029;-53
2022/08/11 01:05:39;;;;;;;9.55;3.97;;;29.00;99.90;;;;;;5031357;28;20091;-54
2022/08/11 01:08:24;;;;;;;12.82;3.92;;;29.00;99.90;;;;;;5031517;28;20028;-54
2022/08/11 01:11:08;;;;;;;14.48;4.43;;;29.00;99.90;;;;;;5031257;28;20029;-53
2022/08/11 01:13:45;;;;;;;12.40;4.40;;;29.00;99.90;;;;;;5031105;28;20385;-53
2022/08/11 01:16:45;;;;;;;15.10;4.18;;;29.00;99.90;;;;;;5031323;28;20018;-54
2022/08/11 01:19:50;;;;;;;17.90;5.68;;;28.90;99.90;;;;;;5031330;28;20021;-54
2022/08/11 01:22:34;;;;;;;13.38;4.20;;;29.00;99.90;;;;;;5030699;28;20057;-53
2022/08/11 01:25:37;;;;;;;16.42;4.47;;;29.00;99.90;;;;;;5031258;28;20037;-53
2022/08/11 01:28:30;;;;;;;9.02;4.03;;;28.90;99.90;;;;;;5031250;28;20559;-53
2022/08/11 01:31:17;;;;;;;8.40;4.03;;;29.00;99.90;;;;;;5031135;28;20036;-57
2022/08/11 01:34:20;;;;;;;9.63;3.65;;;28.90;99.90;;;;;;5031173;28;20026;-55
2022/08/11 01:37:09;;;;;;;9.00;4.43;;;28.90;99.90;;;;;;5031183;28;20017;-53
2022/08/11 01:39:53;;;;;;;12.20;3.92;;;28.90;99.90;;;;;;5002991;28;20037;-53
2022/08/11 01:45:49;;;;;;;13.32;3.95;;;28.90;99.90;;;;;;5031064;28;20033;-54
2022/08/11 01:48:48;;;;;;;10.95;3.40;;;28.90;99.90;;;;;;5030905;28;20541;-54
2022/08/11 01:51:43;;;;;;;13.95;4.00;;;28.90;99.90;;;;;;5031161;28;20052;-53
2022/08/11 01:54:26;;;;;;;11.93;4.38;;;28.90;99.90;;;;;;5031005;28;20025;-53
2022/08/11 01:57:15;;;;;;;7.07;3.40;;;28.90;99.90;;;;;;5030842;28;20021;-55
2022/08/11 01:59:50;;;;;;;11.77;3.97;;;28.90;99.90;;;;;;5040478;22;20296;-49
2022/08/11 02:05:27;;;;;;;10.05;3.55;;;28.90;99.90;;;;;;5011045;28;20061;-49
2022/08/11 02:08:01;;;;;;;12.68;3.90;;;28.90;99.90;;;;;;4994515;28;20034;-49
2022/08/11 02:14:06;;;;;;;12.02;3.85;;;28.90;99.90;;;;;;5014914;28;20040;-49
2022/08/11 02:16:47;;;;;;;8.88;3.47;;;28.80;99.90;;;;;;5014618;28;20101;-48
2022/08/11 02:25:06;;;;;;;10.98;3.30;;;28.80;99.90;;;;;;5014652;28;19932;-49
2022/08/11 02:28:01;;;;;;;14.52;3.30;;;28.70;99.90;;;;;;5014489;28;20553;-49
2022/08/11 02:30:35;;;;;;;9.68;3.97;;;28.70;99.90;;;;;;5014399;28;20030;-48
2022/08/11 02:33:23;;;;;;;15.07;4.50;;;28.70;99.90;;;;;;5014426;28;20018;-49
2022/08/11 02:36:26;;;;;;;9.73;3.90;;;28.70;99.90;;;;;;5014334;28;20109;-49
2022/08/11 02:39:12;;;;;;;10.32;3.28;;;28.60;99.90;;;;;;4983215;28;20378;-49
2022/08/11 02:45:02;;;;;;;11.88;4.22;;;28.60;99.90;;;;;;5014113;28;20051;-50
2022/08/11 02:47:37;;;;;;;11.80;3.72;;;28.70;99.90;;;;;;5014176;28;20117;-50
2022/08/11 02:50:23;;;;;;;13.43;4.35;;;28.70;99.90;;;;;;5014099;28;20408;-50
2022/08/11 02:53:05;;;;;;;8.52;4.40;;;28.70;99.90;;;;;;5014094;28;20076;-50
2022/08/11 02:55:51;;;;;;;12.95;3.97;;;28.70;99.90;;;;;;5014022;28;20161;-49
2022/08/11 02:58:27;;;;;;;14.17;4.27;;;28.70;99.90;;;;;;5013823;28;20033;-50
2022/08/11 03:01:05;;;;;;;10.63;4.10;;;28.70;99.90;;;;;;5026142;22;20054;-53
2022/08/11 03:03:45;;;;;;;13.45;4.10;;;28.70;99.90;;;;;;5013845;28;20538;-54
2022/08/11 03:06:35;;;;;;;13.68;4.72;;;28.70;99.90;;;;;;5013523;28;20041;-53
2022/08/11 03:09:17;;;;;;;12.45;4.82;;;28.70;99.90;;;;;;5013687;28;20792;-53
2022/08/11 03:18:21;;;;;;;13.13;4.60;;;28.70;99.90;;;;;;5013751;28;20041;-52
2022/08/11 03:21:16;;;;;;;10.50;4.07;;;28.70;99.90;;;;;;5012949;28;20033;-50
2022/08/11 03:24:07;;;;;;;15.57;4.43;;;28.70;99.90;;;;;;5013611;28;20108;-53
2022/08/11 03:26:52;;;;;;;13.43;3.92;;;28.70;99.90;;;;;;5013231;28;20041;-53
2022/08/11 03:29:34;;;;;;;7.45;3.58;;;28.70;99.90;;;;;;5013326;28;20021;-54
2022/08/11 03:32:31;;;;;;;9.50;3.95;;;28.60;99.90;;;;;;5013148;28;20121;-53
2022/08/11 03:35:01;;;;;;;10.43;3.17;;;28.60;99.90;;;;;;5013168;28;20386;-54
2022/08/11 03:37:56;;;;;;;11.43;3.70;;;28.60;99.90;;;;;;5013170;28;20437;-53
2022/08/11 03:43:45;;;;;;;6.70;3.30;;;28.60;99.90;;;;;;5013124;28;20133;-57
2022/08/11 03:46:26;;;;;;;7.90;3.08;;;28.60;99.90;;;;;;5012954;28;20091;-55
2022/08/11 03:49:40;;;;;;;8.57;3.50;;;28.50;99.90;;;;;;5012953;28;20438;-55
2022/08/11 03:52:26;;;;;;;7.88;3.45;;;28.50;99.90;;;;;;4914089;29;20032;-56
2022/08/11 03:55:19;;;;;;;8.02;2.75;;;28.50;99.90;;;;;;5013059;28;20417;-55
2022/08/11 03:58:05;;;;;;;10.60;2.70;;;28.40;99.90;;;;;;5012639;28;20022;-55
2022/08/11 04:00:44;;;;;;;7.93;3.50;;;28.40;99.90;;;;;;5042897;22;20421;-49
2022/08/11 04:03:45;;;;;;;7.35;3.40;;;28.40;99.90;;;;;;5052449;28;20426;-48
2022/08/11 04:06:26;;;;;;;6.35;3.10;;;28.40;99.90;;;;;;5052341;28;20040;-49
2022/08/11 04:09:39;;;;;;;5.97;3.05;;;28.40;99.90;;;;;;5052360;28;20096;-49
2022/08/11 04:12:23;;;;;;;7.93;3.22;;;28.40;99.90;;;;;;5024786;28;20072;-49
2022/08/11 04:18:22;;;;;;;11.63;3.80;;;28.40;99.90;;;;;;5052344;28;20044;-48
2022/08/11 04:21:15;;;;;;;9.80;4.20;;;28.40;99.90;;;;;;5004776;28;20044;-49
2022/08/11 04:24:03;;;;;;;8.98;4.80;;;28.40;99.90;;;;;;5052142;28;20053;-49
2022/08/11 04:26:46;;;;;;;9.00;3.28;;;28.40;99.90;;;;;;5051815;28;20028;-48
2022/08/11 04:29:24;;;;;;;8.88;3.50;;;28.40;99.90;;;;;;5052048;28;20104;-48
2022/08/11 04:32:20;;;;;;;8.60;4.28;;;28.40;99.90;;;;;;5050893;28;20528;-49
2022/08/11 04:35:10;;;;;;;10.93;3.95;;;28.40;99.90;;;;;;5052004;28;20044;-49
2022/08/11 04:38:17;;;;;;;12.95;4.10;;;28.40;99.90;;;;;;5051510;28;20108;-49
2022/08/11 04:41:13;;;;;;;9.68;3.78;;;28.40;99.90;;;;;;5018163;28;20040;-49
2022/08/11 04:43:38;;;;;;;9.98;4.25;;;28.40;99.90;;;;;;5051538;28;20032;-49
2022/08/11 04:46:19;;;;;;;13.27;3.65;;;28.30;99.90;;;;;;5051544;28;20033;-49
2022/08/11 05:07:20;;;;;;;10.00;3.47;;;28.30;99.90;;;;;;5051182;28;20492;-49
2022/08/11 05:10:18;;;;;;;11.25;3.65;;;28.30;99.90;;;;;;5051369;28;20487;-49
2022/08/11 05:36:42;;;;;;;10.80;3.78;;;28.20;99.90;;;;;;5050812;28;20134;-49
2022/08/11 05:56:54;;;;;;;16.05;5.15;;;28.10;99.90;;;;;;5055020;28;20084;-50
2022/08/11 05:59:22;;;;;;;17.23;3.90;;;28.10;99.90;;;;;;5054737;28;20477;-49
2022/08/11 06:01:49;;;;;;;13.90;4.07;;;28.10;99.90;;;;;;5036825;28;20053;-49
2022/08/11 06:04:21;;;;;;;12.27;5.45;;;28.10;99.90;;;;;;5054570;28;20029;-50
2022/08/11 06:07:09;;;;;;;15.23;6.22;;;28.20;99.90;;;;;;5054397;28;20136;-50
2022/08/11 06:09:46;;;;;;;25.08;6.38;;;28.20;99.90;;;;;;5054514;28;20425;-49
2022/08/11 06:12:21;;;;;;;14.88;4.10;;;28.20;99.90;;;;;;5054435;28;20036;-49
2022/08/11 06:14:52;;;;;;;8.07;3.42;;;28.20;99.90;;;;;;5054508;28;20346;-50
2022/08/11 06:17:26;;;;;;;16.25;3.70;;;28.20;99.90;;;;;;5036475;28;20032;-50
2022/08/11 06:19:59;;;;;;;8.48;3.25;;;28.20;99.90;;;;;;5054597;28;20021;-49
2022/08/11 06:22:26;;;;;;;13.60;4.15;;;28.20;99.90;;;;;;5054072;28;20032;-49
2022/08/11 06:25:02;;;;;;;10.63;3.50;;;28.20;99.90;;;;;;5036455;28;20021;-49
2022/08/11 06:27:33;;;;;;;13.82;4.00;;;28.20;99.90;;;;;;5054244;28;20084;-49
2022/08/11 06:30:00;;;;;;;15.25;3.95;;;28.20;99.90;;;;;;5054080;28;20036;-50
2022/08/11 06:32:35;;;;;;;;;;;28.30;99.90;;;;;;5054263;28;20025;-49
2022/08/11 06:35:09;;;;;;;12.38;3.60;;;28.30;99.90;;;;;;5053839;28;20040;-50
2022/08/11 06:37:55;;;;;;;18.42;4.38;;;28.30;99.90;;;;;;5053649;28;20025;-49
2022/08/11 06:40:42;;;;;;;17.85;3.85;;;28.30;99.90;;;;;;5053825;28;20021;-50
2022/08/11 06:43:26;;;;;;;21.77;5.13;;;28.30;99.90;;;;;;5053619;28;20075;-49
2022/08/11 06:46:07;;;;;;;20.20;4.07;;;28.30;99.90;;;;;;5036253;28;20036;-49
2022/08/11 06:48:34;;;;;;;14.18;3.35;;;28.30;99.90;;;;;;5053507;28;20091;-49
2022/08/11 06:51:13;;;;;;;22.98;4.20;;;28.30;99.90;;;;;;5053498;28;20064;-49
2022/08/11 06:53:57;;;;;;;16.60;3.63;;;28.40;99.90;;;;;;5053444;28;20087;-49
2022/08/11 07:02:15;;;;;;;19.75;4.88;;;28.40;99.90;;;;;;5053747;28;20048;-48
2022/08/11 07:04:48;;;;;;;18.67;4.65;;;28.40;99.90;;;;;;5053362;28;20036;-49
2022/08/11 07:16:03;;;;;;;19.02;4.22;;;28.50;99.90;;;;;;5053169;28;20028;-49
2022/08/11 07:29:44;;;;;;;18.60;4.35;;;28.70;99.90;;;;;;5052752;28;20040;-50
2022/08/11 07:32:16;;;;;;;16.75;4.88;;;28.70;99.90;;;;;;5052940;28;20029;-49
2022/08/11 07:34:47;;;;;;;13.82;5.10;;;28.70;99.90;;;;;;5052940;28;20028;-50
2022/08/11 07:37:16;;;;;;;16.38;5.57;;;28.70;99.90;;;;;;5052683;28;20021;-49
2022/08/11 07:39:43;;;;;;;21.98;7.03;;;28.70;99.90;;;;;;5052619;28;20020;-49
2022/08/11 07:42:13;;;;;;;19.77;6.82;;;28.80;99.90;;;;;;5052651;28;20059;-50
2022/08/11 07:53:01;;;;;;;14.88;4.10;;;28.80;99.90;;;;;;5052913;28;20098;-49
2022/08/11 07:55:29;;;;;;;10.13;3.80;;;28.80;99.90;;;;;;5052600;28;20067;-49
2022/08/11 08:17:51;;;;;;;12.90;4.43;;;28.90;99.90;;;;;;5052024;28;20408;-50
2022/08/11 08:20:23;;;;;;;9.38;3.92;;;28.80;99.90;;;;;;5051868;28;20388;-50
2022/08/11 08:22:55;;;;;;;13.02;4.90;;;28.90;99.90;;;;;;5051739;28;20061;-49
2022/08/11 08:25:30;;;;;;;13.25;4.05;;;28.90;99.90;;;;;;5051655;28;20410;-49
2022/08/11 08:27:58;;;;;;;12.07;3.83;;;28.80;99.90;;;;;;5051633;28;20056;-49
2022/08/11 08:33:41;;;;;;;12.60;4.25;;;28.80;99.90;;;;;;5051813;28;20043;-50
2022/08/11 08:36:11;;;;;;;13.98;3.42;;;28.80;99.90;;;;;;5048517;28;20029;-48
2022/08/11 08:38:48;;;;;;;12.38;3.97;;;28.80;99.90;;;;;;5051411;28;20473;-49
2022/08/11 08:41:31;;;;;;;17.67;4.32;;;28.90;99.90;;;;;;5051312;28;20039;-49
2022/08/11 08:44:07;;;;;;;7.90;3.95;;;28.90;99.90;;;;;;5051297;28;20021;-50
2022/08/11 08:46:43;;;;;;;10.70;4.00;;;28.90;99.90;;;;;;5051274;28;20049;-50
2022/08/11 08:49:17;;;;;;;12.45;3.72;;;29.00;99.90;;;;;;5051334;28;20025;-49
2022/08/11 08:51:45;;;;;;;11.02;3.65;;;28.90;99.90;;;;;;5051063;28;20040;-50
2022/08/11 08:54:16;;;;;;;15.30;3.83;;;29.00;99.90;;;;;;5051499;28;20035;-50
2022/08/11 08:56:44;;;;;;;12.07;4.82;;;29.00;99.90;;;;;;5051351;28;20122;-50
2022/08/11 08:59:12;;;;;;;8.10;3.67;;;29.00;99.90;;;;;;5051288;28;20029;-50
2022/08/11 09:01:50;;;;;;;11.95;3.30;;;29.00;99.90;;;;;;5051048;28;20072;-50
2022/08/11 09:04:18;;;;;;;9.10;4.35;;;29.10;99.90;;;;;;5051229;28;20431;-49
2022/08/11 09:06:46;;;;;;;12.48;4.32;;;29.10;99.90;;;;;;5051038;28;20040;-49
2022/08/11 09:09:12;;;;;;;9.35;3.00;;;29.10;99.90;;;;;;5051126;28;20051;-50
2022/08/11 09:11:49;;;;;;;15.40;3.22;;;29.20;99.90;;;;;;5051064;28;20040;-50
2022/08/11 09:14:17;;;;;;;14.45;3.60;;;29.20;99.90;;;;;;5051259;28;20025;-50
2022/08/11 09:16:44;;;;;;;13.00;4.13;;;29.30;99.90;;;;;;5051057;28;20032;-49
2022/08/11 09:19:13;;;;;;;10.15;3.17;;;29.30;99.90;;;;;;5050398;28;20025;-50
2022/08/11 09:21:43;;;;;;;6.47;3.35;;;29.30;99.90;;;;;;5051087;28;20029;-50
2022/08/11 09:26:59;;;;;;;11.45;3.10;;;29.30;99.90;;;;;;5050982;28;20043;-50
2022/08/11 09:29:29;;;;;;;9.10;2.88;;;29.30;99.90;;;;;;5050746;28;20507;-50
2022/08/11 09:31:56;;;;;;;12.10;4.28;;;29.30;99.90;;;;;;5050719;28;20116;-49
2022/08/11 09:34:25;;;;;;;11.02;3.45;;;29.40;99.90;;;;;;5050740;28;20029;-50
2022/08/11 09:44:45;;;;;;;7.75;3.33;;;29.50;99.90;;;;;;5051121;28;20071;-49
2022/08/11 09:45:15;;;;;;;13.70;4.20;;;29.50;99.90;;;;;;5050658;28;20029;-49
2022/08/11 09:47:43;;;;;;;14.00;4.03;;;29.50;99.90;;;;;;5050957;28;20029;-50
2022/08/11 09:50:10;;;;;;;11.13;3.75;;;29.50;99.90;;;;;;5032915;28;20022;-50
2022/08/11 09:52:38;;;;;;;14.65;9.07;;;29.50;99.90;;;;;;5050835;28;20392;-50
2022/08/11 09:55:09;;;;;;;12.88;4.90;;;29.50;99.90;;;;;;5050858;28;20033;-49
2022/08/11 10:00:30;;;;;;;15.07;6.72;;;29.60;99.90;;;;;;5050526;28;20524;-49
2022/08/11 10:02:57;;;;;;;20.05;10.30;;;29.60;99.90;;;;;;5032601;28;20032;-49
2022/08/11 10:08:13;;;;;;;14.55;6.10;;;29.60;99.90;;;;;;5050884;28;20040;-49
2022/08/11 10:10:39;;;;;;;15.60;5.97;;;29.60;99.90;;;;;;5050623;28;20017;-49
2022/08/11 10:13:12;;;;;;;16.30;11.50;;;29.60;99.90;;;;;;5050433;28;20036;-50
2022/08/11 10:15:42;;;;;;;16.23;6.15;;;29.60;99.90;;;;;;5050605;28;20036;-49
2022/08/11 10:21:08;;;;;;;12.80;6.38;;;29.60;99.90;;;;;;5050644;28;20086;-49
2022/08/11 10:26:53;;;;;;;9.38;4.40;;;29.60;99.90;;;;;;4988847;28;20042;-49
2022/08/11 10:34:54;;;;;;;8.43;3.67;;;29.70;99.90;;;;;;5054251;28;20043;-49
2022/08/11 10:37:23;;;;;;;8.10;3.38;;;29.70;99.90;;;;;;5053930;28;20025;-49
2022/08/11 10:39:49;;;;;;;8.65;3.03;;;29.80;99.90;;;;;;5053874;28;20100;-48
2022/08/11 10:47:33;;;;;;;7.57;3.10;;;29.80;99.90;;;;;;5054051;28;20557;-50
2022/08/11 10:47:56;;;;;;;8.82;3.30;;;29.80;99.90;;;;;;5053549;28;20033;-49
2022/08/11 10:58:50;;;;;;;9.68;4.93;;;29.90;99.90;;;;;;5054006;28;20174;-49
2022/08/11 11:01:25;;;;;;;7.25;3.25;;;30.00;99.90;;;;;;5053128;28;20049;-49
2022/08/11 11:03:57;;;;;;;9.13;5.82;;;30.00;99.90;;;;;;5053232;28;20033;-49
2022/08/11 11:06:42;;;;;;;16.63;6.63;;;30.00;99.90;;;;;;5053251;28;20052;-50
2022/08/11 11:09:31;;;;;;;13.80;8.05;;;30.00;99.90;;;;;;5053421;28;20040;-50
2022/08/11 11:17:55;;;;;;;10.27;4.88;;;30.20;99.90;;;;;;5053436;28;20108;-50
2022/08/11 11:20:25;;;;;;;6.28;3.08;;;30.20;99.90;;;;;;5052966;28;20276;-50
2022/08/11 11:22:54;;;;;;;8.45;3.05;;;30.30;99.90;;;;;;5053061;28;20056;-50
2022/08/11 11:26:08;;;;;;;8.98;4.22;;;30.30;99.90;;;;;;5045548;28;20033;-50
2022/08/11 11:29:05;;;;;;;8.32;5.13;;;30.30;99.90;;;;;;5043500;28;20386;-50
2022/08/11 11:31:52;;;;;;;9.70;3.95;;;30.40;99.90;;;;;;5017537;28;20112;-50
2022/08/11 11:35:00;;;;;;;9.25;3.53;;;30.40;99.90;;;;;;5050552;28;20037;-49
2022/08/11 11:37:31;;;;;;;8.27;2.75;;;30.40;99.90;;;;;;5035873;28;20519;-50
2022/08/11 11:39:58;;;;;;;8.68;3.20;;;30.40;99.90;;;;;;5052044;28;20053;-50
2022/08/11 11:42:24;;;;;;;9.02;2.90;;;30.50;99.90;;;;;;5047945;28;20035;-50
2022/08/11 11:44:51;;;;;;;11.35;4.68;;;30.60;99.90;;;;;;5052118;28;20036;-50
2022/08/11 11:47:21;;;;;;;7.03;3.35;;;30.50;99.90;;;;;;5052061;28;20408;-50
2022/08/11 11:49:48;;;;;;;14.73;8.38;;;30.60;99.90;;;;;;5032524;28;20137;-50
2022/08/11 11:52:19;;;;;;;10.35;4.70;;;30.60;99.90;;;;;;5032987;28;20033;-50
2022/08/11 11:54:50;;;;;;;16.55;8.63;;;30.60;99.90;;;;;;5039146;28;20041;-51
2022/08/11 12:02:54;;;;;;;13.48;5.43;;;30.70;99.90;;;;;;5049715;28;20039;-51
2022/08/11 12:05:20;;;;;;;16.55;4.13;;;30.70;99.90;;;;;;5051563;28;20104;-52
2022/08/11 12:10:31;;;;;;;10.60;4.20;;;30.70;99.90;;;;;;5041034;28;20504;-51
2022/08/11 12:16:02;;;;;;;8.18;4.22;;;30.70;99.90;;;;;;4938587;28;20090;-50
2022/08/11 12:18:33;;;;;;;7.80;3.80;;;30.60;99.90;;;;;;5022262;28;20065;-50
2022/08/11 12:21:01;;;;;;;10.73;3.85;;;30.60;99.90;;;;;;5046562;28;20026;-50
2022/08/11 12:28:59;;;;;;;10.77;4.85;;;30.60;99.90;;;;;;5036201;28;20551;-50
2022/08/11 12:31:29;;;;;;;13.27;8.38;;;30.60;99.90;;;;;;5047906;28;20090;-50
2022/08/11 12:34:04;;;;;;;14.35;5.97;;;30.70;99.90;;;;;;5049465;28;20408;-49
2022/08/11 12:36:37;;;;;;;15.23;6.82;;;30.70;99.90;;;;;;5042731;28;20053;-49
2022/08/11 12:39:07;;;;;;;6.90;4.13;;;30.70;99.90;;;;;;5040675;28;20029;-49
2022/08/11 12:47:09;;;;;;;6.72;3.47;;;30.70;99.90;;;;;;5050932;28;20080;-49
2022/08/11 12:52:32;;;;;;;13.00;4.00;;;30.80;99.90;;;;;;5044476;28;20044;-49
2022/08/11 12:58:14;;;;;;;11.00;6.38;;;30.80;99.90;;;;;;5037081;28;20025;-49
2022/08/11 12:58:16;;;;;;;15.75;8.05;;;30.90;99.90;;;;;;5050973;28;20021;-50
2022/08/11 13:06:14;;;;;;;16.65;4.50;;;31.00;99.90;;;;;;5048108;28;20090;-54
2022/08/11 13:08:41;;;;;;;18.70;5.80;;;31.00;99.90;;;;;;5050662;28;20032;-52
2022/08/11 13:13:55;;;;;;;9.85;3.30;;;31.10;99.90;;;;;;5045506;28;20114;-51
2022/08/11 13:16:24;;;;;;;8.68;3.50;;;31.10;99.90;;;;;;5049839;28;20546;-51
2022/08/11 13:18:51;;;;;;;10.63;3.78;;;31.10;99.90;;;;;;5044378;28;20025;-53
2022/08/11 13:21:18;;;;;;;11.05;3.30;;;31.10;99.90;;;;;;5043967;28;20023;-51
2022/08/11 13:23:44;;;;;;;7.95;3.47;;;31.10;99.90;;;;;;5046027;28;20032;-49
2022/08/11 13:26:10;;;;;;;8.10;4.32;;;31.20;99.90;;;;;;5046805;28;20048;-50
2022/08/11 13:28:37;;;;;;;11.52;4.25;;;31.20;99.90;;;;;;5046511;28;20036;-50
2022/08/11 13:31:10;;;;;;;8.40;3.53;;;31.10;99.90;;;;;;5050538;28;20267;-51
2022/08/11 13:33:42;;;;;;;8.70;4.22;;;31.20;99.90;;;;;;5050171;28;20094;-50
2022/08/11 13:36:09;;;;;;;10.15;3.20;;;31.20;99.90;;;;;;5043506;28;20071;-50
2022/08/11 13:38:36;;;;;;;8.23;3.40;;;31.20;99.90;;;;;;5049447;28;20056;-50
2022/08/11 13:41:36;;;;;;;11.82;4.53;;;31.20;99.90;;;;;;5050718;28;20119;-49
2022/08/11 13:43:51;;;;;;;11.18;4.85;;;31.20;99.90;;;;;;5050810;28;20029;-50
2022/08/11 13:46:21;;;;;;;11.20;3.90;;;31.20;99.90;;;;;;5046228;28;20565;-49
2022/08/11 13:48:48;;;;;;;9.80;3.15;;;31.20;99.90;;;;;;5040782;28;20040;-49
2022/08/11 13:51:29;;;;;;;9.07;4.63;;;31.20;99.90;;;;;;5049945;28;20468;-50
2022/08/11 13:53:58;;;;;;;12.57;3.83;;;31.20;99.90;;;;;;5050180;28;20075;-49
2022/08/11 13:56:25;;;;;;;6.72;3.53;;;31.20;99.90;;;;;;5050432;28;20152;-50
2022/08/11 13:58:51;;;;;;;;;;;31.20;99.90;;;;;;5040639;28;20532;-48
2022/08/11 14:01:19;;;;;;;11.27;5.60;;;31.20;99.90;;;;;;5013858;28;19929;-49
2022/08/11 14:03:47;;;;;;;9.60;3.47;;;31.20;99.90;;;;;;5032391;28;20508;-49
2022/08/11 14:06:16;;;;;;;6.32;3.60;;;31.30;99.90;;;;;;5037277;28;20087;-49
2022/08/11 14:08:43;;;;;;;9.45;3.45;;;31.30;99.90;;;;;;5038610;28;20078;-49
2022/08/11 14:13:57;;;;;;;6.65;3.60;;;31.30;99.90;;;;;;5044519;28;20040;-50
2022/08/11 14:16:30;;;;;;;8.73;3.30;;;31.30;99.90;;;;;;5035152;28;20021;-50
2022/08/11 14:19:07;;;;;;;8.32;3.00;;;31.30;99.90;;;;;;5040706;28;20489;-50
2022/08/11 14:24:26;;;;;;;11.63;3.30;;;31.40;99.90;;;;;;4996290;28;20454;-51
2022/08/11 14:26:54;;;;;;;8.48;3.25;;;31.40;99.90;;;;;;4969760;28;20051;-50
2022/08/11 14:29:22;;;;;;;9.27;2.88;;;31.40;99.90;;;;;;4971620;28;20029;-50
2022/08/11 14:31:57;;;;;;;7.32;3.28;;;31.40;99.90;;;;;;4972054;28;20027;-50
2022/08/11 14:34:28;;;;;;;6.88;3.38;;;31.40;99.90;;;;;;4966972;28;20428;-50
2022/08/11 14:37:01;;;;;;;11.70;3.38;;;31.50;99.90;;;;;;4970268;28;20037;-50
2022/08/11 14:39:29;;;;;;;9.32;3.90;;;31.50;99.90;;;;;;4972042;28;20098;-49
2022/08/11 14:47:36;;;;;;;8.20;3.80;;;31.40;99.90;;;;;;4970569;28;20562;-49
2022/08/11 14:50:05;;;;;;;10.70;5.38;;;31.40;99.90;;;;;;4970576;28;20019;-50
2022/08/11 14:52:33;;;;;;;11.35;8.00;;;31.40;99.90;;;;;;4972263;28;20107;-49
2022/08/11 14:57:46;;;;;;;7.95;3.42;;;31.40;99.90;;;;;;4971685;28;20407;-49
2022/08/11 15:00:17;;;;;;;5.22;3.13;;;31.40;99.90;;;;;;4969646;28;20042;-50
2022/08/11 15:05:31;;;;;;;7.43;3.45;;;31.40;99.90;;;;;;4968240;28;20034;-49
2022/08/11 15:07:58;;;;;;;9.32;3.67;;;31.40;99.90;;;;;;4967800;28;20411;-50
2022/08/11 15:10:25;;;;;;;11.82;3.80;;;31.30;99.90;;;;;;4970424;28;20030;-49
2022/08/11 15:12:52;;;;;;;8.02;3.67;;;31.30;99.90;;;;;;4987056;28;20027;-49
2022/08/11 15:18:05;;;;;;;11.13;3.20;;;31.40;99.90;;;;;;4971618;28;20034;-49
2022/08/11 15:26:01;;;;;;;9.18;4.03;;;31.40;99.90;;;;;;4970904;28;20045;-49
2022/08/11 15:39:33;;;;;;;7.07;3.22;;;31.40;99.90;;;;;;4971248;28;20038;-51
2022/08/11 15:47:56;;;;;;;10.95;3.50;;;31.40;99.90;;;;;;4968036;28;20118;-50
2022/08/11 15:50:29;;;;;;;7.60;3.30;;;31.50;99.90;;;;;;4970980;28;20059;-50
2022/08/11 15:53:19;;;;;;;7.10;2.88;;;31.50;99.90;;;;;;4968295;28;20047;-49
2022/08/11 15:55:47;;;;;;;7.50;4.63;;;31.50;99.90;;;;;;4970548;28;20038;-49
2022/08/11 16:04:10;;;;;;;11.02;3.60;;;31.40;99.90;;;;;;4972261;28;20073;-50
2022/08/11 16:07:10;;;;;;;7.93;2.78;;;31.40;99.90;;;;;;4973384;28;20471;-50
2022/08/11 16:09:51;;;;;;;8.52;3.08;;;31.50;99.90;;;;;;4969482;28;20026;-50
2022/08/11 16:12:22;;;;;;;7.93;3.42;;;31.50;99.90;;;;;;4972841;28;20110;-50
2022/08/11 16:17:51;;;;;;;8.18;3.45;;;31.50;99.90;;;;;;4971958;28;20034;-50
2022/08/11 16:20:21;;;;;;;7.93;2.95;;;31.50;99.90;;;;;;4972314;28;20027;-52
2022/08/11 16:22:51;;;;;;;9.18;2.70;;;31.50;99.90;;;;;;4972141;28;20375;-52
2022/08/11 16:25:23;;;;;;;7.40;3.30;;;31.60;99.90;;;;;;4971337;28;20451;-52
2022/08/11 16:27:58;;;;;;;8.75;3.15;;;31.50;99.90;;;;;;4971163;28;20483;-51
2022/08/11 16:30:27;;;;;;;10.63;3.90;;;31.50;99.90;;;;;;4971407;28;20029;-51
2022/08/11 16:32:53;;;;;;;12.63;4.68;;;31.50;99.90;;;;;;4968566;28;20114;-51
2022/08/11 16:40:54;;;;;;;10.02;3.83;;;31.50;99.90;;;;;;4971236;28;20029;-52
2022/08/11 16:48:54;;;;;;;10.52;3.88;;;31.40;99.90;;;;;;4971018;28;20058;-49
2022/08/11 16:51:21;;;;;;;10.45;3.75;;;31.40;99.90;;;;;;4972405;28;20418;-49
2022/08/11 16:53:48;;;;;;;8.77;3.42;;;31.40;99.90;;;;;;4972867;28;20035;-50
2022/08/11 16:56:18;;;;;;;9.60;3.97;;;31.40;99.90;;;;;;4972665;28;20478;-49
2022/08/11 17:01:35;;;;;;;8.57;3.47;;;31.30;99.90;;;;;;4972555;28;20109;-48
2022/08/11 17:18:38;;;;;;;9.77;3.70;;;31.10;99.90;;;;;;4972641;28;20089;-50
2022/08/11 17:21:03;;;;;;;8.93;4.20;;;31.00;99.90;;;;;;4972592;28;20117;-49
2022/08/11 17:23:46;;;;;;;9.77;4.85;;;31.00;99.90;;;;;;4972606;28;20030;-50
2022/08/11 17:26:54;;;;;;;12.40;5.35;;;31.00;99.90;;;;;;4972176;28;20498;-49
2022/08/11 17:29:33;;;;;;;14.85;6.65;;;31.00;99.90;;;;;;4972602;28;20438;-49
2022/08/11 17:37:35;;;;;;;;;;;30.70;99.90;;;;;;4972833;28;20089;-49
2022/08/11 17:40:04;;;;;;;;;;;30.70;99.90;;;;;;4975837;28;20309;-49
2022/08/11 17:48:24;;;;;;;8.88;4.40;;;30.70;99.90;;;;;;4976337;28;20097;-50
2022/08/11 17:50:53;;;;;;;12.98;5.18;;;30.60;99.90;;;;;;4974918;28;20046;-49
2022/08/11 18:01:37;;;;;;;;;;;30.60;99.90;;;;;;4976119;28;20105;-48
2022/08/11 18:04:05;;;;;;;11.98;4.32;;;30.50;99.90;;;;;;4976094;28;19906;-50
2022/08/11 18:06:34;;;;;;;12.43;4.70;;;30.50;99.90;;;;;;4975767;28;20050;-48
